Time;durP1;ratioP1;P1;durP2;ratioP2;P2;SDS_P1;SDS_P2;PMS_P1;PMS_P2;Temp;Humidity;BMP_temperature;BMP_pressure;BME280_temperature;BME280_humidity;BME280_pressure;Samples;Min_cycle;Max_cycle;Signal;HPM_P1;HPM_P2
2023/12/29 00:00:38;;;;;;;3.47;1.20;;;;;;;4.61;100.00;99545.69;4980870;28;20042;-75
2023/12/29 00:03:04;;;;;;;0.77;0.77;;;;;;;4.74;100.00;99556.66;4980369;28;20041;-76
2023/12/29 00:05:30;;;;;;;2.17;0.80;;;;;;;4.89;100.00;99563.97;4996141;28;20477;-75
2023/12/29 00:07:56;;;;;;;2.95;0.85;;;;;;;4.82;100.00;99555.81;4996634;28;20030;-76
2023/12/29 00:10:21;;;;;;;5.63;1.17;;;;;;;4.72;100.00;99558.66;4980243;28;20503;-75
2023/12/29 00:12:47;;;;;;;3.25;1.23;;;;;;;4.62;100.00;99558.81;4980221;28;20045;-76
2023/12/29 00:15:13;;;;;;;5.18;1.40;;;;;;;4.64;100.00;99566.66;5012717;28;20046;-76
2023/12/29 00:17:40;;;;;;;0.80;0.70;;;;;;;4.67;100.00;99568.97;5012436;28;20042;-75
2023/12/29 00:20:10;;;;;;;6.05;1.50;;;;;;;4.68;100.00;99565.28;5012161;28;20088;-75
2023/12/29 00:22:36;;;;;;;0.60;0.60;;;;;;;4.69;100.00;99563.50;4996783;28;20041;-75
2023/12/29 00:25:02;;;;;;;3.72;1.25;;;;;;;4.65;100.00;99565.63;4996262;28;20100;-76
2023/12/29 00:27:28;;;;;;;0.85;0.85;;;;;;;4.69;100.00;99574.97;5012319;28;20096;-76
2023/12/29 00:29:54;;;;;;;4.75;1.02;;;;;;;4.66;100.00;99567.31;4979955;28;20436;-76
2023/12/29 00:32:20;;;;;;;0.88;0.77;;;;;;;4.72;100.00;99573.81;4980042;28;20120;-75
2023/12/29 00:34:46;;;;;;;3.08;1.20;;;;;;;4.75;100.00;99574.28;4980022;28;20498;-75
2023/12/29 00:37:11;;;;;;;3.40;1.10;;;;;;;4.74;100.00;99567.31;5012279;28;20029;-76
2023/12/29 00:39:40;;;;;;;3.28;1.08;;;;;;;4.77;100.00;99572.31;4996093;28;20480;-75
2023/12/29 00:42:06;;;;;;;2.67;1.10;;;;;;;4.90;100.00;99571.78;4996316;28;20026;-75
2023/12/29 00:44:31;;;;;;;4.78;0.68;;;;;;;5.19;100.00;99570.41;4982053;28;20044;-75
2023/12/29 00:46:57;;;;;;;0.47;0.47;;;;;;;5.35;100.00;99575.69;4983358;28;20045;-75
2023/12/29 00:49:23;;;;;;;5.97;1.08;;;;;;;5.30;100.00;99578.03;5016169;28;20022;-75
2023/12/29 00:51:49;;;;;;;4.22;1.05;;;;;;;5.23;100.00;99580.53;4983459;28;20424;-75
2023/12/29 00:54:15;;;;;;;0.73;0.73;;;;;;;5.19;100.00;99584.56;4983539;28;20137;-75
2023/12/29 00:56:41;;;;;;;14.13;1.58;;;;;;;5.04;100.00;99579.09;4999947;28;20388;-75
2023/12/29 00:59:07;;;;;;;2.17;1.48;;;;;;;4.99;100.00;99589.41;4983227;28;20026;-75
2023/12/29 01:01:35;;;;;;;3.60;0.85;;;;;;;4.95;100.00;99589.91;5015859;28;20041;-76
2023/12/29 01:04:02;;;;;;;7.13;1.73;;;;;;;5.01;100.00;99599.91;5015542;28;20034;-77
2023/12/29 01:06:28;;;;;;;2.20;0.82;;;;;;;5.01;100.00;99589.25;5015584;28;20068;-77
2023/12/29 01:08:54;;;;;;;3.13;1.30;;;;;;;5.07;100.00;99584.06;4999366;28;20034;-77
2023/12/29 01:11:19;;;;;;;3.33;0.60;;;;;;;5.20;100.00;99588.88;4983133;28;20080;-77
2023/12/29 01:13:45;;;;;;;5.57;1.05;;;;;;;5.23;100.00;99593.88;5015366;28;20026;-76
2023/12/29 01:16:11;;;;;;;1.70;1.52;;;;;;;5.33;100.00;99601.69;4998727;28;20033;-77
2023/12/29 01:18:36;;;;;;;5.07;1.33;;;;;;;5.28;100.00;99601.38;4999150;28;20091;-77
2023/12/29 01:21:02;;;;;;;0.80;0.80;;;;;;;5.23;100.00;99604.53;4982845;28;20046;-77
2023/12/29 01:23:29;;;;;;;4.80;0.88;;;;;;;5.26;100.00;99596.19;5015194;28;20034;-77
2023/12/29 01:25:54;;;;;;;4.75;2.03;;;;;;;5.25;100.00;99593.72;5014886;28;20440;-77
2023/12/29 01:28:20;;;;;;;1.88;0.57;;;;;;;5.22;100.00;99581.56;4982451;28;20040;-76
2023/12/29 01:30:45;;;;;;;5.25;1.00;;;;;;;5.11;100.00;99586.41;4998885;28;20123;-76
2023/12/29 01:33:11;;;;;;;0.93;0.75;;;;;;;5.03;100.00;99587.25;4982633;28;20069;-76
2023/12/29 01:35:37;;;;;;;3.00;0.95;;;;;;;4.99;100.00;99591.25;4998834;28;20034;-76
2023/12/29 01:38:03;;;;;;;3.38;0.93;;;;;;;4.90;100.00;99593.09;4998715;28;20125;-76
2023/12/29 01:40:29;;;;;;;5.35;1.15;;;;;;;4.98;100.00;99608.25;4982523;28;20032;-77
2023/12/29 01:42:54;;;;;;;5.18;1.52;;;;;;;5.02;100.00;99604.22;4982472;28;20129;-76
2023/12/29 01:45:25;;;;;;;3.97;1.02;;;;;;;5.00;100.00;99596.44;4982486;28;20038;-77
2023/12/29 01:47:51;;;;;;;9.07;2.38;;;;;;;4.93;100.00;99589.28;5014333;28;20500;-76
2023/12/29 01:50:18;;;;;;;5.35;1.75;;;;;;;4.89;100.00;99596.75;4982291;28;20496;-77
2023/12/29 01:52:44;;;;;;;2.58;0.93;;;;;;;4.89;100.00;99596.75;4982241;28;20077;-77
2023/12/29 01:55:12;;;;;;;5.97;1.40;;;;;;;4.87;100.00;99605.91;4965836;28;20064;-76
2023/12/29 01:57:38;;;;;;;2.50;1.88;;;;;;;4.84;100.00;99604.41;4998390;28;20037;-76
2023/12/29 02:00:06;;;;;;;3.70;1.15;;;;;;;4.85;100.00;99601.59;4982919;28;20108;-76
2023/12/29 02:02:32;;;;;;;5.43;1.27;;;;;;;4.88;100.00;99604.91;4998439;28;20046;-76
2023/12/29 02:05:00;;;;;;;11.55;2.30;;;;;;;4.90;100.00;99605.59;4981940;28;20381;-77
2023/12/29 02:07:30;;;;;;;12.82;1.48;;;;;;;4.97;100.00;99609.22;4982395;28;20033;-76
2023/12/29 02:09:58;;;;;;;1.83;1.13;;;;;;;4.96;100.00;99605.75;4982864;28;20037;-77
2023/12/29 02:12:23;;;;;;;15.00;1.63;;;;;;;4.95;100.00;99614.75;4981866;28;20038;-77
2023/12/29 02:14:49;;;;;;;8.68;1.83;;;;;;;4.88;100.00;99626.22;4965858;28;20060;-76
2023/12/29 02:17:20;;;;;;;5.45;1.42;;;;;;;4.80;100.00;99624.41;4997868;28;20491;-76
2023/12/29 02:19:49;;;;;;;7.93;1.30;;;;;;;4.74;100.00;99620.56;5014186;28;20037;-76
2023/12/29 02:22:14;;;;;;;3.33;1.33;;;;;;;4.78;100.00;99618.41;4981989;28;20452;-76
2023/12/29 02:24:47;;;;;;;7.35;1.45;;;;;;;4.88;100.00;99620.91;4981644;28;20125;-76
2023/12/29 02:27:47;;;;;;;9.15;2.80;;;;;;;5.00;100.00;99619.53;4981439;28;20033;-77
2023/12/29 02:30:12;;;;;;;7.50;2.00;;;;;;;4.99;100.00;99636.53;4981747;28;20465;-76
2023/12/29 02:32:40;;;;;;;8.43;2.65;;;;;;;4.88;100.00;99624.38;5015228;28;20034;-76
2023/12/29 02:35:10;;;;;;;10.15;2.00;;;;;;;4.83;100.00;99635.53;4997785;28;20129;-77
2023/12/29 02:37:37;;;;;;;4.93;1.05;;;;;;;4.81;100.00;99648.19;4998467;28;20449;-76
2023/12/29 02:40:03;;;;;;;9.23;2.05;;;;;;;4.89;100.00;99643.88;4965417;28;20480;-77
2023/12/29 02:42:29;;;;;;;11.65;1.75;;;;;;;4.92;100.00;99632.88;4997492;28;20049;-76
2023/12/29 02:44:55;;;;;;;10.73;1.85;;;;;;;5.04;100.00;99631.53;4997066;28;20034;-76
2023/12/29 02:47:21;;;;;;;13.93;2.28;;;;;;;5.07;100.00;99636.53;4981113;28;20041;-76
2023/12/29 02:49:49;;;;;;;5.72;1.67;;;;;;;4.96;100.00;99634.22;5013359;28;20080;-76
2023/12/29 02:52:15;;;;;;;8.55;1.83;;;;;;;4.92;100.00;99639.06;4997449;28;20092;-76
2023/12/29 02:54:40;;;;;;;11.32;1.77;;;;;;;4.88;100.00;99639.53;4981427;28;20045;-76
2023/12/29 02:57:06;;;;;;;13.35;2.70;;;;;;;4.78;100.00;99639.69;4981108;28;20036;-76
2023/12/29 02:59:32;;;;;;;7.20;1.65;;;;;;;4.71;100.00;99642.22;4981106;28;20424;-77
2023/12/29 03:01:57;;;;;;;18.02;3.13;;;;;;;4.72;100.00;99643.88;4981834;28;20095;-76
2023/12/29 03:04:23;;;;;;;11.52;2.78;;;;;;;4.71;100.00;99650.19;4981423;28;20381;-76
2023/12/29 03:06:49;;;;;;;15.80;2.47;;;;;;;4.64;100.00;99643.84;4996722;28;20469;-76
2023/12/29 03:09:14;;;;;;;12.25;2.97;;;;;;;4.46;100.00;99644.00;4981011;28;20461;-76
2023/12/29 03:11:40;;;;;;;15.98;2.28;;;;;;;4.42;100.00;99650.66;4980887;28;20033;-76
2023/12/29 03:14:05;;;;;;;14.10;2.17;;;;;;;4.42;100.00;99642.66;4980783;28;20025;-76
2023/12/29 03:16:31;;;;;;;10.70;2.00;;;;;;;4.46;100.00;99649.31;4981378;28;20034;-76
2023/12/29 03:18:57;;;;;;;8.88;1.55;;;;;;;4.49;100.00;99645.50;4996925;28;20460;-76
2023/12/29 03:21:22;;;;;;;23.23;2.30;;;;;;;4.65;100.00;99648.16;4996919;28;20046;-76
2023/12/29 03:23:51;;;;;;;3.33;0.98;;;;;;;4.92;100.00;99643.53;4996928;28;20119;-76
2023/12/29 03:26:16;;;;;;;12.32;2.72;;;;;;;5.10;100.00;99638.84;4996371;28;20026;-77
2023/12/29 03:28:42;;;;;;;4.93;1.58;;;;;;;5.29;100.00;99654.50;4996823;28;20492;-76
2023/12/29 03:31:07;;;;;;;4.38;1.60;;;;;;;5.48;100.00;99647.16;4980928;28;20393;-76
2023/12/29 03:33:33;;;;;;;6.38;1.73;;;;;;;5.54;100.00;99645.63;4980558;28;20033;-76
2023/12/29 03:35:59;;;;;;;11.88;1.65;;;;;;;5.35;100.00;99657.50;5012644;28;20026;-76
2023/12/29 03:38:24;;;;;;;11.65;1.27;;;;;;;5.18;100.00;99651.34;5013407;28;20049;-76
2023/12/29 03:40:50;;;;;;;16.27;2.42;;;;;;;5.02;100.00;99650.34;4980575;28;20049;-76
2023/12/29 03:43:16;;;;;;;13.75;2.10;;;;;;;4.93;100.00;99648.69;4980461;28;20038;-76
2023/12/29 03:45:41;;;;;;;5.95;1.42;;;;;;;4.91;100.00;99664.00;4980450;28;20042;-76
2023/12/29 03:48:08;;;;;;;14.00;2.53;;;;;;;4.90;100.00;99653.53;4980155;28;20034;-76
2023/12/29 03:50:34;;;;;;;7.05;1.63;;;;;;;5.03;100.00;99680.50;4980639;28;20033;-75
2023/12/29 03:53:00;;;;;;;7.30;1.85;;;;;;;5.08;100.00;99670.19;4996512;28;20030;-76
2023/12/29 03:55:25;;;;;;;4.93;1.40;;;;;;;5.01;100.00;99658.53;4980407;28;20026;-76
2023/12/29 03:57:51;;;;;;;6.10;1.42;;;;;;;4.93;100.00;99650.53;4980930;28;20044;-76
2023/12/29 04:00:17;;;;;;;8.25;1.88;;;;;;;4.81;100.00;99653.50;4996889;28;20388;-76
2023/12/29 04:02:42;;;;;;;9.05;1.42;;;;;;;4.60;100.00;99645.16;4980382;28;20373;-76
2023/12/29 04:05:11;;;;;;;9.77;2.42;;;;;;;4.48;100.00;99649.16;4980274;28;20033;-76
2023/12/29 04:07:39;;;;;;;13.05;1.70;;;;;;;4.40;100.00;99653.47;4996290;28;20113;-76
2023/12/29 04:10:05;;;;;;;8.23;2.15;;;;;;;4.28;100.00;99644.13;4980189;28;20026;-76
2023/12/29 04:12:30;;;;;;;8.40;1.40;;;;;;;4.18;100.00;99640.75;4980256;28;20049;-76
2023/12/29 04:14:56;;;;;;;10.02;1.30;;;;;;;4.14;100.00;99642.91;4996369;28;20498;-76
2023/12/29 04:17:22;;;;;;;11.43;1.75;;;;;;;4.00;100.00;99648.88;4996813;28;20044;-76
2023/12/29 04:19:47;;;;;;;12.98;2.10;;;;;;;3.90;100.00;99648.16;4983982;28;20042;-76
2023/12/29 04:22:13;;;;;;;5.70;1.50;;;;;;;3.80;100.00;99653.59;5000086;28;20092;-76
2023/12/29 04:24:39;;;;;;;9.57;1.65;;;;;;;3.78;100.00;99644.94;4984243;28;20022;-76
2023/12/29 04:27:05;;;;;;;10.43;2.92;;;;;;;3.67;100.00;99647.88;5000028;28;20109;-76
2023/12/29 04:29:30;;;;;;;9.45;1.88;;;;;;;3.67;100.00;99653.19;5000070;28;20388;-76
2023/12/29 04:31:56;;;;;;;10.57;1.65;;;;;;;3.63;100.00;99649.19;4983895;28;20443;-76
2023/12/29 04:34:21;;;;;;;9.52;2.03;;;;;;;3.63;100.00;99641.22;4983746;28;20496;-76
2023/12/29 04:36:47;;;;;;;17.02;2.85;;;;;;;3.66;100.00;99636.41;4999956;28;20034;-76
2023/12/29 04:39:13;;;;;;;2.97;1.23;;;;;;;3.74;100.00;99632.97;4983658;28;20034;-76
2023/12/29 04:41:38;;;;;;;10.90;1.90;;;;;;;3.84;100.00;99636.34;4999568;28;20037;-76
2023/12/29 04:44:04;;;;;;;9.30;1.67;;;;;;;3.90;100.00;99618.91;4999746;28;20029;-76
2023/12/29 04:46:30;;;;;;;8.02;1.88;;;;;;;4.10;100.00;99627.44;4999642;28;20037;-76
2023/12/29 04:48:55;;;;;;;5.18;1.38;;;;;;;4.26;100.00;99624.84;4984361;28;20037;-76
2023/12/29 04:51:21;;;;;;;6.15;1.85;;;;;;;4.39;100.00;99617.22;4983729;28;20080;-75
2023/12/29 04:53:47;;;;;;;10.48;1.85;;;;;;;4.45;100.00;99621.03;4983370;28;20542;-76
2023/12/29 04:56:12;;;;;;;8.02;1.83;;;;;;;4.38;100.00;99614.69;4983307;28;20036;-77
2023/12/29 04:58:38;;;;;;;8.77;1.55;;;;;;;4.30;100.00;99622.66;4999504;28;20057;-76
2023/12/29 05:01:04;;;;;;;11.95;2.17;;;;;;;4.21;100.00;99613.00;4983348;28;20124;-77
2023/12/29 05:03:30;;;;;;;11.52;1.92;;;;;;;4.08;100.00;99614.31;4983245;28;20033;-76
2023/12/29 05:05:55;;;;;;;6.45;1.30;;;;;;;3.89;100.00;99619.88;4999457;28;20038;-76
2023/12/29 05:08:21;;;;;;;11.90;2.00;;;;;;;3.83;100.00;99605.41;4982886;28;20073;-76
2023/12/29 05:10:47;;;;;;;8.07;1.80;;;;;;;3.73;100.00;99610.00;4983080;28;20065;-76
2023/12/29 05:13:12;;;;;;;15.68;2.38;;;;;;;3.62;100.00;99610.31;4998940;28;20034;-76
2023/12/29 05:15:38;;;;;;;6.50;1.70;;;;;;;3.59;100.00;99611.44;4983550;28;20033;-76
2023/12/29 05:18:04;;;;;;;5.80;1.92;;;;;;;3.46;100.00;99616.38;4999306;28;20052;-76
2023/12/29 05:20:30;;;;;;;7.47;1.95;;;;;;;3.47;100.00;99615.41;5015323;28;20046;-75
2023/12/29 05:22:56;;;;;;;11.13;1.90;;;;;;;3.43;100.00;99606.88;4982961;28;20448;-76
2023/12/29 05:25:24;;;;;;;12.55;1.80;;;;;;;3.46;100.00;99609.22;4982555;28;20137;-76
2023/12/29 05:27:50;;;;;;;9.43;1.60;;;;;;;3.41;100.00;99614.19;4999285;28;20124;-76
2023/12/29 05:30:16;;;;;;;8.68;2.08;;;;;;;3.29;100.00;99624.25;4981956;28;20455;-75
2023/12/29 05:32:41;;;;;;;6.57;1.77;;;;;;;3.20;100.00;99625.22;4998606;28;20400;-76
2023/12/29 05:35:07;;;;;;;13.95;1.95;;;;;;;3.21;100.00;99631.34;4998676;28;20044;-76
2023/12/29 05:37:33;;;;;;;8.65;2.15;;;;;;;3.20;100.00;99629.66;4982648;28;20361;-77
2023/12/29 05:39:59;;;;;;;10.05;1.90;;;;;;;3.23;100.00;99618.75;5015825;28;20081;-76
2023/12/29 05:42:24;;;;;;;13.65;2.13;;;;;;;3.17;100.00;99628.16;4982472;28;20030;-76
2023/12/29 05:44:50;;;;;;;9.98;1.52;;;;;;;3.16;100.00;99633.63;5014483;28;20033;-76
2023/12/29 05:47:17;;;;;;;10.05;2.05;;;;;;;3.20;100.00;99629.66;4982258;28;20030;-76
2023/12/29 05:49:43;;;;;;;14.93;2.50;;;;;;;3.33;100.00;99634.56;4982086;28;20124;-76
2023/12/29 05:52:09;;;;;;;8.02;1.98;;;;;;;3.41;100.00;99635.44;5014560;28;20201;-76
2023/12/29 05:54:35;;;;;;;9.30;2.75;;;;;;;3.37;100.00;99633.28;4982252;28;20091;-76
2023/12/29 05:57:00;;;;;;;11.02;1.73;;;;;;;3.26;100.00;99634.38;4982242;28;20079;-76
2023/12/29 05:59:26;;;;;;;8.02;2.30;;;;;;;3.13;100.00;99629.47;4982269;28;20033;-76
2023/12/29 06:01:52;;;;;;;6.82;1.83;;;;;;;2.97;100.00;99624.88;5014255;28;20041;-76
2023/12/29 06:04:17;;;;;;;11.20;2.35;;;;;;;2.91;100.00;99622.84;4982051;28;20384;-76
2023/12/29 06:06:43;;;;;;;7.65;1.50;;;;;;;2.86;100.00;99627.78;4982861;28;20033;-76
2023/12/29 06:09:12;;;;;;;10.93;1.55;;;;;;;2.80;100.00;99631.03;4998200;28;20552;-76
2023/12/29 06:11:37;;;;;;;4.65;1.33;;;;;;;2.85;100.00;99628.75;4998148;28;20038;-76
2023/12/29 06:14:03;;;;;;;8.43;1.98;;;;;;;2.96;100.00;99628.50;4997733;28;20088;-76
2023/12/29 06:16:30;;;;;;;8.60;1.65;;;;;;;2.95;100.00;99632.16;4997642;28;20064;-76
2023/12/29 06:18:56;;;;;;;16.02;2.28;;;;;;;2.96;100.00;99632.97;5014202;28;20033;-76
2023/12/29 06:21:22;;;;;;;16.55;3.35;;;;;;;3.05;100.00;99638.22;4997758;28;20469;-76
2023/12/29 06:23:48;;;;;;;7.32;1.30;;;;;;;3.12;100.00;99637.56;4997936;28;20124;-76
2023/12/29 06:26:17;;;;;;;6.55;2.05;;;;;;;3.27;100.00;99644.81;5013935;28;20029;-76
2023/12/29 06:28:44;;;;;;;10.35;2.00;;;;;;;3.36;100.00;99644.88;4981713;28;20026;-76
2023/12/29 06:31:10;;;;;;;10.82;2.33;;;;;;;3.36;100.00;99631.59;4981636;28;20052;-75
2023/12/29 06:33:35;;;;;;;14.85;2.72;;;;;;;3.30;100.00;99635.72;4981491;28;20034;-75
2023/12/29 06:36:01;;;;;;;10.82;2.22;;;;;;;3.31;100.00;99637.41;4981172;28;20048;-76
2023/12/29 06:38:27;;;;;;;9.02;2.17;;;;;;;3.35;100.00;99633.41;4981471;28;20061;-76
2023/12/29 06:40:52;;;;;;;12.15;1.85;;;;;;;3.25;100.00;99628.19;4981429;28;20038;-76
2023/12/29 06:43:18;;;;;;;7.80;1.88;;;;;;;3.08;100.00;99632.56;4981419;28;20447;-76
2023/12/29 06:45:44;;;;;;;10.07;2.03;;;;;;;2.97;100.00;99638.16;4998249;28;20038;-76
2023/12/29 06:48:09;;;;;;;8.75;1.50;;;;;;;2.87;100.00;99642.72;4980911;28;20030;-76
2023/12/29 06:50:36;;;;;;;6.93;1.52;;;;;;;2.81;100.00;99646.81;4981276;28;20500;-76
2023/12/29 06:53:03;;;;;;;6.40;1.65;;;;;;;2.79;100.00;99648.78;4965192;28;20481;-76
2023/12/29 06:55:28;;;;;;;11.75;1.50;;;;;;;2.70;100.00;99644.41;4997314;28;20042;-76
2023/12/29 06:58:08;;;;;;;11.00;1.88;;;;;;;2.63;100.00;99646.81;4981914;28;20469;-76
2023/12/29 07:00:39;;;;;;;7.53;1.50;;;;;;;2.71;100.00;99651.38;5013570;28;20037;-76
2023/12/29 07:03:05;;;;;;;6.10;1.33;;;;;;;2.83;100.00;99646.66;4981110;28;20042;-76
2023/12/29 07:05:32;;;;;;;7.30;1.63;;;;;;;2.95;100.00;99664.00;4981036;28;20381;-76
2023/12/29 07:08:00;;;;;;;7.95;1.60;;;;;;;3.12;100.00;99662.31;4980830;28;20524;-76
2023/12/29 07:10:26;;;;;;;7.22;1.55;;;;;;;3.24;100.00;99662.91;4980949;28;20038;-76
2023/12/29 07:12:52;;;;;;;7.97;1.83;;;;;;;3.29;100.00;99668.59;4980925;28;20044;-76
2023/12/29 07:15:17;;;;;;;11.43;1.58;;;;;;;3.38;100.00;99675.63;4980907;28;20087;-76
2023/12/29 07:17:43;;;;;;;8.18;2.28;;;;;;;3.52;100.00;99672.41;4980811;28;20503;-77
2023/12/29 07:20:09;;;;;;;5.95;1.45;;;;;;;3.65;100.00;99671.13;4980886;28;20033;-76
2023/12/29 07:22:34;;;;;;;7.53;1.67;;;;;;;3.79;100.00;99675.03;4981395;28;20095;-76
2023/12/29 07:25:00;;;;;;;6.50;1.42;;;;;;;3.88;100.00;99676.72;4996895;28;20395;-76
2023/12/29 07:27:26;;;;;;;4.50;1.70;;;;;;;3.93;100.00;99695.69;4981064;28;20033;-76
2023/12/29 07:29:52;;;;;;;5.50;1.50;;;;;;;3.94;100.00;99708.84;4980706;28;20115;-76
2023/12/29 07:32:17;;;;;;;7.20;1.60;;;;;;;3.94;100.00;99702.69;4996397;28;20050;-76
2023/12/29 07:34:45;;;;;;;3.85;0.93;;;;;;;3.82;100.00;99685.34;4996803;28;20030;-76
2023/12/29 07:37:11;;;;;;;1.00;0.50;;;;;;;3.86;100.00;99689.34;4980847;28;20030;-76
2023/12/29 07:39:37;;;;;;;1.58;1.08;;;;;;;3.93;100.00;99679.75;4980522;28;20030;-76
2023/12/29 07:42:04;;;;;;;4.72;0.88;;;;;;;3.99;100.00;99672.94;5012600;28;20022;-76
2023/12/29 07:44:29;;;;;;;2.25;1.00;;;;;;;4.08;100.00;99682.66;4980420;28;20388;-76
2023/12/29 07:46:57;;;;;;;1.13;1.02;;;;;;;4.11;100.00;99677.00;4996491;28;20034;-76
2023/12/29 07:49:22;;;;;;;5.88;1.05;;;;;;;4.13;100.00;99691.81;4980430;28;20034;-76
2023/12/29 07:51:48;;;;;;;2.75;1.15;;;;;;;4.12;100.00;99692.78;4980176;28;20053;-76
2023/12/29 07:54:14;;;;;;;0.52;0.50;;;;;;;4.13;100.00;99706.94;4986720;28;20045;-76
2023/12/29 07:56:39;;;;;;;4.78;1.48;;;;;;;4.19;100.00;99717.75;5003032;28;20037;-76
2023/12/29 07:59:06;;;;;;;1.58;0.73;;;;;;;4.21;100.00;99712.28;4986688;28;20394;-76
2023/12/29 08:01:31;;;;;;;1.92;0.60;;;;;;;4.24;100.00;99721.78;5003438;28;20103;-76
2023/12/29 08:03:57;;;;;;;0.40;0.40;;;;;;;4.25;100.00;99732.25;5003774;28;20445;-76
2023/12/29 08:06:23;;;;;;;0.47;0.47;;;;;;;4.28;100.00;99739.91;4986811;28;20057;-76
2023/12/29 08:08:48;;;;;;;0.40;0.40;;;;;;;4.28;100.00;99744.41;5003519;28;20041;-76
2023/12/29 08:11:15;;;;;;;0.40;0.40;;;;;;;4.23;100.00;99760.00;5002905;28;20046;-76
2023/12/29 08:13:42;;;;;;;0.70;0.70;;;;;;;4.15;100.00;99759.00;5018815;28;20172;-76
2023/12/29 08:16:08;;;;;;;0.40;0.40;;;;;;;4.07;100.00;99748.28;5019204;28;20121;-76
2023/12/29 08:18:35;;;;;;;0.40;0.40;;;;;;;4.04;100.00;99758.44;5019554;28;20034;-76
2023/12/29 08:21:04;;;;;;;1.23;0.70;;;;;;;4.00;100.00;99757.09;4986650;28;20029;-76
2023/12/29 08:23:29;;;;;;;0.40;0.40;;;;;;;3.93;100.00;99765.69;4970956;28;20030;-76
2023/12/29 08:25:59;;;;;;;0.40;0.40;;;;;;;3.92;100.00;99772.00;5002652;28;20042;-76
2023/12/29 08:28:24;;;;;;;0.40;0.40;;;;;;;3.84;100.00;99771.94;4986160;28;20374;-76
2023/12/29 08:30:50;;;;;;;0.40;0.40;;;;;;;3.73;100.00;99766.88;5002763;28;20117;-76
2023/12/29 08:33:16;;;;;;;0.40;0.40;;;;;;;3.64;100.00;99778.44;4985925;28;20559;-76
2023/12/29 08:35:42;;;;;;;0.40;0.40;;;;;;;3.56;100.00;99768.59;4986563;28;20116;-76
2023/12/29 08:38:07;;;;;;;0.40;0.40;;;;;;;3.55;100.00;99782.03;5018980;28;20398;-76
2023/12/29 08:40:33;;;;;;;0.40;0.40;;;;;;;3.53;100.00;99769.75;4986346;28;20050;-76
2023/12/29 08:42:59;;;;;;;0.40;0.40;;;;;;;3.53;100.00;99769.75;4986352;28;20049;-76
2023/12/29 08:45:25;;;;;;;0.40;0.40;;;;;;;3.53;100.00;99768.91;5002722;28;20036;-76
2023/12/29 08:47:51;;;;;;;0.40;0.40;;;;;;;3.53;100.00;99780.38;4986229;28;20026;-76
2023/12/29 08:50:16;;;;;;;0.43;0.43;;;;;;;3.57;100.00;99777.41;5002142;28;20473;-76
2023/12/29 08:52:43;;;;;;;0.40;0.40;;;;;;;3.59;100.00;99781.56;5018628;28;20473;-76
2023/12/29 08:55:09;;;;;;;0.40;0.40;;;;;;;3.62;100.00;99783.91;4985937;28;20026;-76
2023/12/29 08:57:35;;;;;;;0.40;0.40;;;;;;;3.67;100.00;99792.25;5002560;28;20087;-76
2023/12/29 09:00:01;;;;;;;0.40;0.40;;;;;;;3.68;100.00;99793.13;4986225;28;20037;-76
2023/12/29 09:02:26;;;;;;;0.43;0.43;;;;;;;3.71;100.00;99798.13;5002286;28;20366;-75
2023/12/29 09:04:52;;;;;;;0.40;0.40;;;;;;;3.73;100.00;99802.28;4999042;28;20040;-76
2023/12/29 09:07:18;;;;;;;0.50;0.50;;;;;;;3.77;100.00;99802.81;4982837;28;20435;-76
2023/12/29 09:09:43;;;;;;;0.40;0.40;;;;;;;3.80;100.00;99778.56;5015436;28;20029;-77
2023/12/29 09:12:09;;;;;;;0.40;0.40;;;;;;;3.83;100.00;99778.25;4983032;28;20068;-76
2023/12/29 09:14:35;;;;;;;0.40;0.40;;;;;;;3.84;100.00;99779.94;4982875;28;20042;-76
2023/12/29 09:17:05;;;;;;;0.40;0.40;;;;;;;3.90;100.00;99781.13;4982918;28;20033;-76
2023/12/29 09:19:30;;;;;;;0.50;0.50;;;;;;;4.00;100.00;99783.69;4967937;28;20069;-76
2023/12/29 09:21:56;;;;;;;0.47;0.47;;;;;;;4.00;100.00;99773.06;4999122;28;20069;-76
2023/12/29 09:24:22;;;;;;;0.40;0.40;;;;;;;3.96;100.00;99773.34;4999027;28;20121;-75
2023/12/29 09:26:48;;;;;;;0.40;0.40;;;;;;;3.90;100.00;99786.44;5014591;28;20034;-76
2023/12/29 09:29:14;;;;;;;0.40;0.40;;;;;;;3.80;100.00;99791.84;4982678;28;20491;-76
2023/12/29 09:31:39;;;;;;;0.40;0.40;;;;;;;3.77;100.00;99799.31;5015351;28;20037;-75
2023/12/29 09:34:05;;;;;;;0.40;0.40;;;;;;;3.71;100.00;99792.81;4997462;28;20124;-76
2023/12/29 09:36:31;;;;;;;0.45;0.45;;;;;;;3.68;100.00;99809.91;4982443;28;20119;-76
2023/12/29 09:38:56;;;;;;;0.40;0.40;;;;;;;3.69;100.00;99814.22;4982586;28;20038;-76
2023/12/29 09:41:24;;;;;;;0.40;0.40;;;;;;;3.71;100.00;99816.72;4998564;28;20483;-76
2023/12/29 09:43:51;;;;;;;0.40;0.40;;;;;;;3.77;100.00;99808.13;4998717;28;20029;-76
2023/12/29 09:46:18;;;;;;;0.40;0.40;;;;;;;3.84;100.00;99811.00;4982271;28;20492;-76
2023/12/29 09:48:45;;;;;;;0.40;0.40;;;;;;;3.91;100.00;99822.69;4982144;28;20026;-76
2023/12/29 09:51:12;;;;;;;0.50;0.50;;;;;;;3.95;100.00;99832.03;5014663;28;20033;-76
2023/12/29 09:53:38;;;;;;;0.43;0.43;;;;;;;3.92;100.00;99827.84;4982643;28;20139;-76
2023/12/29 09:56:07;;;;;;;0.50;0.50;;;;;;;4.04;100.00;99846.22;5014223;28;20064;-76
2023/12/29 09:58:34;;;;;;;0.40;0.40;;;;;;;4.11;100.00;99842.78;4982349;28;20053;-76
2023/12/29 10:01:01;;;;;;;0.47;0.47;;;;;;;4.18;100.00;99837.63;4966193;28;20468;-76
2023/12/29 10:03:27;;;;;;;0.40;0.40;;;;;;;4.30;100.00;99841.72;4998337;28;20049;-76
2023/12/29 10:05:56;;;;;;;0.40;0.40;;;;;;;4.57;100.00;99835.34;4981618;28;20037;-76
2023/12/29 10:08:23;;;;;;;0.50;0.50;;;;;;;4.75;100.00;99835.25;4997638;28;20037;-77
2023/12/29 10:10:49;;;;;;;0.50;0.50;;;;;;;5.01;100.00;99835.19;4998002;28;20037;-74
2023/12/29 10:13:16;;;;;;;0.40;0.40;;;;;;;5.10;100.00;99833.38;4999070;28;20046;-75
2023/12/29 10:15:51;;;;;;;0.47;0.47;;;;;;;4.91;100.00;99839.00;4998326;28;20086;-74
2023/12/29 10:18:59;;;;;;;0.40;0.40;;;;;;;4.80;100.00;99846.28;5013784;28;20045;-74
2023/12/29 10:21:30;;;;;;;0.43;0.43;;;;;;;4.69;100.00;99846.56;4984395;28;20065;-74
2023/12/29 10:24:07;;;;;;;0.40;0.40;;;;;;;4.63;100.00;99849.84;4997324;28;20034;-74
2023/12/29 10:26:34;;;;;;;0.40;0.40;;;;;;;4.58;100.00;99858.34;4997797;28;20038;-74
2023/12/29 10:28:59;;;;;;;0.40;0.40;;;;;;;4.60;100.00;99868.81;4981325;28;20038;-74
2023/12/29 10:31:25;;;;;;;0.50;0.50;;;;;;;4.70;100.00;99874.03;4981407;28;20037;-74
2023/12/29 10:33:52;;;;;;;0.50;0.50;;;;;;;5.21;100.00;99872.19;4998177;28;20129;-74
2023/12/29 10:36:17;;;;;;;0.50;0.50;;;;;;;5.29;100.00;99875.75;4998020;28;20038;-75
2023/12/29 10:38:44;;;;;;;0.50;0.50;;;;;;;5.81;100.00;99863.94;4981419;28;20096;-75
2023/12/29 10:41:18;;;;;;;0.50;0.50;;;;;;;6.48;100.00;99881.56;4981463;28;20481;-75
2023/12/29 10:43:52;;;;;;;0.50;0.50;;;;;;;7.14;100.00;99879.47;4997451;28;20045;-75
2023/12/29 10:46:18;;;;;;;0.50;0.50;;;;;;;7.75;100.00;99879.59;4998431;28;20096;-75
2023/12/29 10:48:44;;;;;;;0.50;0.50;;;;;;;7.63;100.00;99872.00;4981468;28;20061;-75
2023/12/29 10:51:10;;;;;;;0.50;0.50;;;;;;;7.41;100.00;99870.13;4981197;28;20376;-75
2023/12/29 10:53:36;;;;;;;0.50;0.50;;;;;;;7.26;100.00;99872.75;4980729;28;20096;-75
2023/12/29 10:56:02;;;;;;;0.40;0.40;;;;;;;7.30;100.00;99870.53;4996844;28;20038;-74
2023/12/29 10:58:29;;;;;;;0.50;0.50;;;;;;;7.20;100.00;99884.16;4980237;28;20033;-75
2023/12/29 11:01:01;;;;;;;0.40;0.40;;;;;;;7.23;100.00;99875.78;4996910;28;20057;-74
2023/12/29 11:03:27;;;;;;;0.50;0.50;;;;;;;7.20;100.00;99882.31;4997351;28;20104;-75
2023/12/29 11:06:01;;;;;;;0.40;0.40;;;;;;;6.44;100.00;99883.75;4980634;28;20045;-74
2023/12/29 11:08:27;;;;;;;0.40;0.40;;;;;;;5.89;100.00;99876.44;4981808;28;20145;-75
2023/12/29 11:10:54;;;;;;;0.40;0.40;;;;;;;5.57;100.00;99886.09;4996850;28;20515;-75
2023/12/29 11:13:20;;;;;;;0.40;0.40;;;;;;;5.44;100.00;99889.25;4996523;28;20025;-75
2023/12/29 11:15:46;;;;;;;0.40;0.40;;;;;;;5.42;100.00;99890.41;4980697;28;20229;-74
2023/12/29 11:18:17;;;;;;;0.50;0.50;;;;;;;5.32;100.00;99885.25;4980685;28;20468;-74
2023/12/29 11:20:44;;;;;;;0.50;0.50;;;;;;;5.33;100.00;99878.06;4996760;28;20046;-74
2023/12/29 11:23:13;;;;;;;0.40;0.40;;;;;;;5.39;100.00;99880.06;4996688;28;20034;-74
2023/12/29 11:25:38;;;;;;;0.40;0.40;;;;;;;5.35;100.00;99876.09;4980689;28;20515;-74
2023/12/29 11:28:06;;;;;;;0.50;0.50;;;;;;;5.89;100.00;99861.28;4994243;28;20030;-75